Time;durP1;ratioP1;P1;durP2;ratioP2;P2;SDS_P1;SDS_P2;PMS_P1;PMS_P2;Temp;Humidity;BMP_temperature;BMP_pressure;BME280_temperature;BME280_humidity;BME280_pressure;Samples;Min_cycle;Max_cycle;Signal;HPM_P1;HPM_P2
2023/12/10 00:01:50;;;;;;;30.47;5.37;;;8.40;99.90;;;;;;5101537;28;20403;-73
2023/12/10 00:04:16;;;;;;;27.63;4.43;;;8.40;99.90;;;;;;5092313;28;20421;-73
2023/12/10 00:06:42;;;;;;;22.97;4.57;;;8.40;99.90;;;;;;5108759;28;20404;-73
2023/12/10 00:09:07;;;;;;;25.35;4.68;;;8.40;99.90;;;;;;5110229;28;20781;-74
2023/12/10 00:11:33;;;;;;;28.10;4.97;;;8.40;99.90;;;;;;5109204;28;21926;-73
2023/12/10 00:14:01;;;;;;;27.17;4.60;;;8.40;99.90;;;;;;5109999;28;20404;-73
2023/12/10 00:16:27;;;;;;;24.27;5.30;;;8.40;99.90;;;;;;5109551;28;20392;-73
2023/12/10 00:18:52;;;;;;;28.38;5.00;;;8.40;99.90;;;;;;5109926;28;20763;-73
2023/12/10 00:21:18;;;;;;;26.77;4.97;;;8.40;99.90;;;;;;5107164;28;20401;-73
2023/12/10 00:23:43;;;;;;;28.60;4.80;;;8.40;99.90;;;;;;5110255;28;20424;-73
2023/12/10 00:26:09;;;;;;;24.42;4.60;;;8.30;99.90;;;;;;5104408;28;20412;-73
2023/12/10 00:28:35;;;;;;;28.40;4.30;;;8.30;99.90;;;;;;5102150;28;20404;-74
2023/12/10 00:31:00;;;;;;;24.65;4.18;;;8.30;99.90;;;;;;5104088;28;20398;-73
2023/12/10 00:33:26;;;;;;;21.13;3.55;;;8.30;99.90;;;;;;5100719;28;20412;-73
2023/12/10 00:35:52;;;;;;;25.53;4.87;;;8.30;99.90;;;;;;5107683;28;20396;-73
2023/12/10 00:38:17;;;;;;;22.98;4.57;;;8.30;99.90;;;;;;5109704;28;20448;-73
2023/12/10 00:40:43;;;;;;;23.97;4.70;;;8.30;99.90;;;;;;5109021;28;20445;-73
2023/12/10 00:43:11;;;;;;;26.30;4.95;;;8.30;99.90;;;;;;5109510;28;20397;-73
2023/12/10 00:45:37;;;;;;;22.73;4.57;;;8.30;99.90;;;;;;5102565;28;20988;-73
2023/12/10 00:48:02;;;;;;;27.02;4.60;;;8.30;99.90;;;;;;5089232;28;20493;-74
2023/12/10 00:50:28;;;;;;;26.80;4.70;;;8.30;99.90;;;;;;5106817;28;20784;-74
2023/12/10 00:52:53;;;;;;;26.70;4.23;;;8.30;99.90;;;;;;5096085;28;20408;-73
2023/12/10 00:55:19;;;;;;;28.42;4.78;;;8.30;99.90;;;;;;5093932;28;20753;-73
2023/12/10 00:57:45;;;;;;;29.80;4.70;;;8.30;99.20;;;;;;5107710;28;20453;-74
2023/12/10 01:00:11;;;;;;;25.30;4.82;;;8.30;98.60;;;;;;5106466;28;20440;-73
2023/12/10 01:02:36;;;;;;;29.27;4.85;;;8.30;98.80;;;;;;5096800;28;20398;-73
2023/12/10 01:05:02;;;;;;;30.07;4.80;;;8.30;98.30;;;;;;5088111;28;20765;-74
2023/12/10 01:07:28;;;;;;;22.60;4.72;;;8.30;98.60;;;;;;5088448;28;20448;-74
2023/12/10 01:09:54;;;;;;;29.23;4.90;;;8.30;97.90;;;;;;5093792;28;20918;-74
2023/12/10 01:12:19;;;;;;;28.27;4.80;;;8.30;97.70;;;;;;5097543;28;20407;-74
2023/12/10 01:14:45;;;;;;;27.43;4.20;;;8.30;96.70;;;;;;5089196;28;20406;-73
2023/12/10 01:17:12;;;;;;;26.75;4.78;;;8.30;96.50;;;;;;5087674;28;20900;-74
2023/12/10 01:19:38;;;;;;;20.15;4.25;;;8.30;96.00;;;;;;5070794;28;20436;-74
2023/12/10 01:22:04;;;;;;;26.58;4.30;;;8.30;95.70;;;;;;5087989;28;20437;-74
2023/12/10 01:24:30;;;;;;;27.05;4.82;;;8.30;95.00;;;;;;5088248;28;20430;-74
2023/12/10 01:26:55;;;;;;;25.65;3.88;;;8.40;95.00;;;;;;5089962;28;20401;-74
2023/12/10 01:29:21;;;;;;;23.13;3.87;;;8.30;94.70;;;;;;5087412;28;20969;-74
2023/12/10 01:31:46;;;;;;;23.63;4.15;;;8.40;94.00;;;;;;5087905;28;20401;-74
2023/12/10 01:34:12;;;;;;;21.03;4.07;;;8.30;94.40;;;;;;5091517;28;20489;-74
2023/12/10 01:36:38;;;;;;;22.35;4.35;;;8.30;94.30;;;;;;5107407;28;20404;-74
2023/12/10 01:39:03;;;;;;;22.37;3.80;;;8.30;94.60;;;;;;5105856;28;21160;-74
2023/12/10 01:41:29;;;;;;;17.13;3.80;;;8.30;94.80;;;;;;5085978;28;20425;-74
2023/12/10 01:43:55;;;;;;;21.83;3.40;;;8.20;95.40;;;;;;5082725;28;20440;-74
2023/12/10 01:46:21;;;;;;;20.65;3.38;;;8.20;95.90;;;;;;5090513;28;20408;-73
2023/12/10 01:48:50;;;;;;;23.88;3.80;;;8.10;96.10;;;;;;5096701;28;20867;-74
2023/12/10 01:51:15;;;;;;;22.87;3.73;;;8.10;96.40;;;;;;5085035;28;20488;-74
2023/12/10 01:53:41;;;;;;;24.00;4.10;;;8.00;96.70;;;;;;5102453;28;20415;-73
2023/12/10 01:56:08;;;;;;;23.98;3.80;;;8.00;97.00;;;;;;5097786;28;20409;-73
2023/12/10 01:58:35;;;;;;;26.35;4.35;;;8.00;97.30;;;;;;5082041;28;20475;-74
2023/12/10 02:01:01;;;;;;;22.83;3.70;;;8.00;97.50;;;;;;5096973;28;20403;-74
2023/12/10 02:03:31;;;;;;;23.67;3.97;;;8.00;97.80;;;;;;5099667;28;20432;-74
2023/12/10 02:05:57;;;;;;;22.48;3.45;;;8.00;98.20;;;;;;5101072;28;20415;-74
2023/12/10 02:08:22;;;;;;;23.17;3.87;;;7.90;98.50;;;;;;5098260;28;20500;-74
2023/12/10 02:10:48;;;;;;;25.10;4.18;;;7.90;98.60;;;;;;5101054;28;20447;-73
2023/12/10 02:13:14;;;;;;;22.23;3.73;;;7.90;99.10;;;;;;5098506;28;20401;-74
2023/12/10 02:15:39;;;;;;;23.43;4.20;;;7.90;99.30;;;;;;5093965;28;20455;-74
2023/12/10 02:18:05;;;;;;;19.73;3.40;;;7.80;99.50;;;;;;5095337;28;20498;-74
2023/12/10 02:20:31;;;;;;;18.67;3.05;;;7.80;99.90;;;;;;5100214;28;20407;-74
2023/12/10 02:23:04;;;;;;;20.73;3.80;;;7.80;99.90;;;;;;5102886;28;20412;-73
2023/12/10 02:25:35;;;;;;;24.13;3.33;;;7.80;99.90;;;;;;5100172;28;20429;-74
2023/12/10 02:28:08;;;;;;;25.33;3.55;;;7.80;99.90;;;;;;5099389;28;20422;-74
2023/12/10 02:30:35;;;;;;;22.15;3.92;;;7.80;99.90;;;;;;5101700;28;20401;-74
2023/12/10 02:33:01;;;;;;;22.57;4.47;;;7.80;99.90;;;;;;5096679;28;20398;-73
2023/12/10 02:35:27;;;;;;;26.08;4.10;;;7.80;99.90;;;;;;5083335;28;20489;-73
2023/12/10 02:37:53;;;;;;;25.58;3.85;;;7.70;99.90;;;;;;5097178;28;20394;-74
2023/12/10 02:40:19;;;;;;;20.08;3.70;;;7.70;99.90;;;;;;5100540;28;20439;-73
2023/12/10 02:42:45;;;;;;;22.43;3.93;;;7.80;99.90;;;;;;5096755;28;20406;-73
2023/12/10 02:45:11;;;;;;;22.95;3.40;;;7.80;99.90;;;;;;5099360;28;20482;-73
2023/12/10 02:47:37;;;;;;;22.15;3.10;;;7.70;99.90;;;;;;5097174;28;20410;-74
2023/12/10 02:50:03;;;;;;;23.50;3.78;;;7.80;99.90;;;;;;5092817;28;20402;-73
2023/12/10 02:52:29;;;;;;;18.35;2.80;;;7.70;99.90;;;;;;5096599;28;20413;-73
2023/12/10 02:54:54;;;;;;;20.53;3.50;;;7.70;99.90;;;;;;5100459;28;20909;-73
2023/12/10 02:57:20;;;;;;;19.37;3.50;;;7.70;99.90;;;;;;5098944;28;20455;-74
2023/12/10 02:59:45;;;;;;;18.83;3.42;;;7.80;99.90;;;;;;5074267;28;20865;-73
2023/12/10 03:02:11;;;;;;;24.27;3.97;;;7.80;99.90;;;;;;5099257;28;20441;-73
2023/12/10 03:04:37;;;;;;;19.90;3.35;;;7.80;99.90;;;;;;5100943;28;20429;-73
2023/12/10 03:07:03;;;;;;;18.47;3.90;;;7.80;99.90;;;;;;5098976;28;20402;-73
2023/12/10 03:09:28;;;;;;;21.15;3.10;;;7.80;99.90;;;;;;5100203;28;20836;-74
2023/12/10 03:11:54;;;;;;;18.92;3.30;;;7.80;99.90;;;;;;5099032;28;20406;-73
2023/12/10 03:14:19;;;;;;;17.60;2.70;;;7.80;99.90;;;;;;5099349;28;20404;-73
2023/12/10 03:16:45;;;;;;;20.67;3.37;;;7.80;99.90;;;;;;5099567;28;20827;-73
2023/12/10 03:19:11;;;;;;;23.98;3.28;;;7.80;99.90;;;;;;5098978;28;20404;-74
2023/12/10 03:21:36;;;;;;;20.00;3.57;;;7.80;99.90;;;;;;5098831;28;20400;-73
2023/12/10 03:24:02;;;;;;;19.10;2.90;;;7.80;99.90;;;;;;5097899;28;20436;-73
2023/12/10 03:26:27;;;;;;;20.87;3.67;;;7.80;99.90;;;;;;5096620;28;20409;-73
2023/12/10 03:28:53;;;;;;;20.33;3.40;;;7.80;99.90;;;;;;5096737;28;20771;-74
2023/12/10 03:31:19;;;;;;;19.98;3.22;;;7.80;99.90;;;;;;5097835;28;20762;-74
2023/12/10 03:33:44;;;;;;;23.17;3.03;;;7.80;99.90;;;;;;5098327;28;20388;-74
2023/12/10 03:36:10;;;;;;;21.67;3.95;;;7.80;99.90;;;;;;5098275;28;20409;-74
2023/12/10 03:38:35;;;;;;;15.43;3.50;;;7.80;99.90;;;;;;5101562;28;20403;-74
2023/12/10 03:41:02;;;;;;;20.98;4.25;;;7.70;99.90;;;;;;5101709;28;20864;-74
2023/12/10 03:43:28;;;;;;;19.25;3.17;;;7.70;99.90;;;;;;5101366;28;20458;-74
2023/12/10 03:45:54;;;;;;;20.27;3.30;;;7.80;99.90;;;;;;5100909;28;20401;-74
2023/12/10 03:48:20;;;;;;;22.73;3.28;;;7.70;99.90;;;;;;5098409;28;20405;-73
2023/12/10 03:50:45;;;;;;;17.50;3.20;;;7.70;99.90;;;;;;5089217;28;20424;-74
2023/12/10 03:53:11;;;;;;;18.10;3.00;;;7.70;99.90;;;;;;5093405;28;20440;-74
2023/12/10 03:55:36;;;;;;;20.05;3.17;;;7.60;99.90;;;;;;5102715;28;20397;-74
2023/12/10 03:58:02;;;;;;;16.77;2.57;;;7.60;99.90;;;;;;5101147;28;20398;-74
2023/12/10 04:00:28;;;;;;;19.73;3.30;;;7.60;99.90;;;;;;5101087;28;20405;-74
2023/12/10 04:02:54;;;;;;;16.60;2.70;;;7.60;99.90;;;;;;5099517;28;20414;-74
2023/12/10 04:05:20;;;;;;;17.55;2.90;;;7.60;99.90;;;;;;5085691;28;20438;-74
2023/12/10 04:07:48;;;;;;;12.52;2.15;;;7.60;99.90;;;;;;5069017;28;20902;-74
2023/12/10 04:10:14;;;;;;;12.95;1.92;;;7.60;99.90;;;;;;5078349;28;20453;-74
2023/12/10 04:12:40;;;;;;;14.23;2.22;;;7.60;99.90;;;;;;5109172;28;20453;-74
2023/12/10 04:15:06;;;;;;;14.90;1.90;;;7.60;99.90;;;;;;5082107;28;20405;-74
2023/12/10 04:17:32;;;;;;;16.98;2.47;;;7.60;99.90;;;;;;5109235;28;21006;-74
2023/12/10 04:19:57;;;;;;;14.93;2.47;;;7.60;99.90;;;;;;5108102;28;20404;-74
2023/12/10 04:22:23;;;;;;;13.03;2.07;;;7.60;99.90;;;;;;5092086;28;20524;-74
2023/12/10 04:24:48;;;;;;;15.52;2.22;;;7.60;99.90;;;;;;5085947;28;20433;-74
2023/12/10 04:27:14;;;;;;;13.70;1.73;;;7.60;99.90;;;;;;5084179;28;20498;-75
2023/12/10 04:29:41;;;;;;;8.88;0.95;;;7.60;99.90;;;;;;5089146;28;20401;-74
2023/12/10 04:32:06;;;;;;;10.63;1.33;;;7.60;99.90;;;;;;5089254;28;20485;-75
2023/12/10 04:34:32;;;;;;;8.63;1.20;;;7.60;99.90;;;;;;5102045;28;20834;-75
2023/12/10 04:36:57;;;;;;;8.43;1.25;;;7.70;99.90;;;;;;5109887;28;20434;-74
2023/12/10 04:39:23;;;;;;;5.97;0.77;;;7.60;99.90;;;;;;5093023;28;20447;-75
2023/12/10 04:41:49;;;;;;;9.23;1.15;;;7.70;99.90;;;;;;5087397;28;20431;-75
2023/12/10 04:44:14;;;;;;;7.67;1.20;;;7.60;99.90;;;;;;5091289;28;20447;-76
2023/12/10 04:46:40;;;;;;;8.70;0.73;;;7.70;99.90;;;;;;5107080;28;20733;-75
2023/12/10 04:49:05;;;;;;;6.00;1.10;;;7.60;99.90;;;;;;5108159;28;20407;-74
2023/12/10 04:51:31;;;;;;;7.63;0.90;;;7.70;99.90;;;;;;5106281;28;20409;-75
2023/12/10 04:53:57;;;;;;;5.03;0.88;;;7.60;99.90;;;;;;5107642;28;20401;-75
2023/12/10 04:56:24;;;;;;;7.07;0.83;;;7.70;99.90;;;;;;5106704;28;20473;-75
2023/12/10 04:58:50;;;;;;;6.82;1.17;;;7.70;99.90;;;;;;5107923;28;20405;-74
2023/12/10 05:01:15;;;;;;;7.37;1.10;;;7.70;99.90;;;;;;5093250;28;20417;-74
2023/12/10 05:03:41;;;;;;;7.63;1.00;;;7.70;99.90;;;;;;5107957;28;20424;-74
2023/12/10 05:06:07;;;;;;;8.98;0.95;;;7.70;99.90;;;;;;5106503;28;20945;-74
2023/12/10 05:08:33;;;;;;;9.90;0.95;;;7.70;99.90;;;;;;5108072;28;20793;-74
2023/12/10 05:10:59;;;;;;;8.30;1.00;;;7.70;99.90;;;;;;5107165;28;20545;-75
2023/12/10 05:13:25;;;;;;;6.95;0.80;;;7.70;99.90;;;;;;5093854;28;20456;-74
2023/12/10 05:15:50;;;;;;;8.50;1.03;;;7.70;99.90;;;;;;5095470;28;20413;-74
2023/12/10 05:18:16;;;;;;;8.80;1.00;;;7.70;99.90;;;;;;5088370;28;20414;-74
2023/12/10 05:20:41;;;;;;;6.70;1.02;;;7.70;99.90;;;;;;5101156;28;20433;-74
2023/12/10 05:23:07;;;;;;;8.07;0.90;;;7.70;99.90;;;;;;5107732;28;20416;-74
2023/12/10 05:25:32;;;;;;;6.35;1.02;;;7.70;99.90;;;;;;5090445;28;20439;-74
2023/12/10 05:27:58;;;;;;;9.87;0.90;;;7.80;99.90;;;;;;5095014;28;20404;-75
2023/12/10 05:30:24;;;;;;;6.27;0.97;;;7.80;99.90;;;;;;5095699;28;20454;-75
2023/12/10 05:32:49;;;;;;;10.43;1.17;;;7.80;99.90;;;;;;5089548;28;20435;-75
2023/12/10 05:35:15;;;;;;;7.50;1.30;;;7.90;99.90;;;;;;5108128;28;20400;-75
2023/12/10 05:37:41;;;;;;;9.05;1.40;;;7.90;99.90;;;;;;5094135;28;20475;-75
2023/12/10 05:40:08;;;;;;;6.75;1.23;;;8.00;99.90;;;;;;5107471;28;20438;-74
2023/12/10 05:42:33;;;;;;;7.88;1.23;;;8.00;99.90;;;;;;5087832;28;20401;-75
2023/12/10 05:44:59;;;;;;;6.70;0.97;;;8.00;99.90;;;;;;5087690;28;20662;-75
2023/12/10 05:47:25;;;;;;;6.57;1.00;;;8.00;99.90;;;;;;5086912;28;20477;-75
2023/12/10 05:49:50;;;;;;;6.93;1.10;;;8.00;99.90;;;;;;5087965;28;20445;-75
2023/12/10 05:52:16;;;;;;;7.97;1.23;;;8.00;99.90;;;;;;5087408;28;20402;-75
2023/12/10 05:54:42;;;;;;;7.00;1.10;;;8.00;99.90;;;;;;5087556;28;20402;-75
2023/12/10 05:57:07;;;;;;;7.30;1.13;;;8.10;99.90;;;;;;5093552;28;20409;-75
2023/12/10 05:59:33;;;;;;;9.03;1.60;;;8.10;99.90;;;;;;5106427;28;20429;-75
2023/12/10 06:01:59;;;;;;;6.33;0.93;;;8.00;99.90;;;;;;5105526;28;20499;-75
2023/12/10 06:04:24;;;;;;;11.32;1.35;;;8.10;99.90;;;;;;5106845;28;20424;-75
2023/12/10 06:06:50;;;;;;;13.47;1.83;;;8.10;99.90;;;;;;5104142;28;20410;-75
2023/12/10 06:09:16;;;;;;;11.10;1.30;;;8.00;99.90;;;;;;5106146;28;20424;-75
2023/12/10 06:11:42;;;;;;;9.45;1.60;;;8.00;99.90;;;;;;5099924;28;20472;-73
2023/12/10 06:14:08;;;;;;;10.45;1.80;;;8.00;99.90;;;;;;5086676;28;20532;-74
2023/12/10 06:16:33;;;;;;;11.38;1.75;;;8.00;99.90;;;;;;5104458;28;20903;-74
2023/12/10 06:18:59;;;;;;;12.10;1.80;;;8.00;99.90;;;;;;5106527;28;20499;-73
2023/12/10 06:21:25;;;;;;;13.68;1.92;;;8.00;99.90;;;;;;5092090;28;20405;-74
2023/12/10 06:23:50;;;;;;;16.30;2.43;;;8.00;99.90;;;;;;5106767;28;20778;-74
2023/12/10 06:26:16;;;;;;;13.87;2.23;;;8.00;99.90;;;;;;5104651;28;20455;-74
2023/12/10 06:28:41;;;;;;;16.15;2.55;;;8.00;99.90;;;;;;5094325;28;20482;-74
2023/12/10 06:31:07;;;;;;;18.73;2.63;;;8.00;99.90;;;;;;5102541;28;20404;-74
2023/12/10 06:33:32;;;;;;;14.23;2.08;;;8.00;99.90;;;;;;5105233;28;20416;-74
2023/12/10 06:35:58;;;;;;;18.03;2.07;;;8.10;99.90;;;;;;5091077;28;20404;-74
2023/12/10 06:38:24;;;;;;;13.98;2.78;;;8.10;99.90;;;;;;5106009;28;20434;-74
2023/12/10 06:40:49;;;;;;;17.43;3.00;;;8.10;99.90;;;;;;5099362;28;20405;-74
2023/12/10 06:43:15;;;;;;;15.53;2.10;;;8.10;99.90;;;;;;5098748;28;20415;-74
2023/12/10 06:45:40;;;;;;;24.52;3.47;;;8.10;99.90;;;;;;5089077;28;20406;-74
2023/12/10 06:48:06;;;;;;;19.97;2.70;;;8.20;99.90;;;;;;5096050;28;20416;-74
2023/12/10 06:50:32;;;;;;;19.17;2.72;;;8.20;99.90;;;;;;5100615;28;20416;-74
2023/12/10 06:52:58;;;;;;;19.08;2.60;;;8.20;99.90;;;;;;5105255;28;20428;-74
2023/12/10 06:55:24;;;;;;;23.42;3.90;;;8.20;99.90;;;;;;5082584;28;20481;-74
2023/12/10 06:57:49;;;;;;;25.53;4.10;;;8.20;99.90;;;;;;5104708;28;20511;-75
2023/12/10 07:00:17;;;;;;;22.87;3.70;;;8.20;99.90;;;;;;5099353;28;20406;-75
2023/12/10 07:02:43;;;;;;;21.17;3.40;;;8.20;99.90;;;;;;5085625;28;20412;-75
2023/12/10 07:05:09;;;;;;;22.20;3.40;;;8.20;99.90;;;;;;5096873;28;20433;-75
2023/12/10 07:07:34;;;;;;;16.70;3.03;;;8.20;99.90;;;;;;5101514;28;20442;-74
2023/12/10 07:10:00;;;;;;;24.13;3.80;;;8.20;99.90;;;;;;5096176;28;20410;-75
2023/12/10 07:12:26;;;;;;;23.45;3.80;;;8.20;99.90;;;;;;5105389;28;20957;-75
2023/12/10 07:14:51;;;;;;;28.27;3.83;;;8.20;99.90;;;;;;5094374;28;20396;-74
2023/12/10 07:17:17;;;;;;;21.95;3.05;;;8.20;99.90;;;;;;5099158;28;20821;-75
2023/12/10 07:19:43;;;;;;;25.60;3.67;;;8.20;99.90;;;;;;5110154;28;20396;-75
2023/12/10 07:22:08;;;;;;;20.70;3.70;;;8.20;99.90;;;;;;5109912;28;20485;-75
2023/12/10 07:24:34;;;;;;;25.38;3.45;;;8.20;99.90;;;;;;5108654;28;20561;-75
2023/12/10 07:27:01;;;;;;;26.20;3.90;;;8.20;99.90;;;;;;5109781;28;20416;-75
2023/12/10 07:29:27;;;;;;;20.83;3.30;;;8.20;99.90;;;;;;5103972;28;20492;-75
2023/12/10 07:31:52;;;;;;;19.60;3.27;;;8.20;99.90;;;;;;5102156;28;20525;-75
2023/12/10 07:34:18;;;;;;;26.23;4.20;;;8.30;99.90;;;;;;5107609;28;20482;-75
2023/12/10 07:36:43;;;;;;;21.77;3.53;;;8.30;99.90;;;;;;5110136;28;20916;-75
2023/12/10 07:39:09;;;;;;;22.48;3.75;;;8.30;99.90;;;;;;5093908;28;20403;-75
2023/12/10 07:41:35;;;;;;;21.43;3.73;;;8.30;99.90;;;;;;5108953;28;20849;-75
2023/12/10 07:44:01;;;;;;;22.83;4.03;;;8.40;99.90;;;;;;5105949;28;21010;-75
2023/12/10 07:46:26;;;;;;;27.10;4.17;;;8.40;99.90;;;;;;5109964;28;20525;-75
2023/12/10 07:48:52;;;;;;;22.63;3.70;;;8.40;99.90;;;;;;5105832;28;20913;-75
2023/12/10 07:51:18;;;;;;;28.27;4.13;;;8.40;99.90;;;;;;5108166;28;20792;-75
2023/12/10 07:53:44;;;;;;;26.33;4.50;;;8.40;99.90;;;;;;5101327;28;20489;-75
2023/12/10 07:56:10;;;;;;;22.92;4.10;;;8.50;99.90;;;;;;5089639;28;20410;-75
2023/12/10 07:58:36;;;;;;;26.95;3.88;;;8.50;99.90;;;;;;5104397;28;20479;-75
2023/12/10 08:01:02;;;;;;;23.42;4.22;;;8.50;99.90;;;;;;5107424;28;20469;-75
2023/12/10 08:03:27;;;;;;;27.13;4.75;;;8.50;99.90;;;;;;5083497;28;20398;-75
2023/12/10 08:05:53;;;;;;;28.23;4.77;;;8.50;99.90;;;;;;5098843;28;20405;-75
2023/12/10 08:08:19;;;;;;;27.25;4.38;;;8.60;99.90;;;;;;5101789;28;20501;-75
2023/12/10 08:10:46;;;;;;;24.97;4.23;;;8.60;99.90;;;;;;5106715;28;20495;-75
2023/12/10 08:13:11;;;;;;;19.93;3.60;;;8.60;99.90;;;;;;5085037;28;20433;-75
2023/12/10 08:15:37;;;;;;;23.03;3.80;;;8.60;99.90;;;;;;5083438;28;20541;-75
2023/12/10 08:18:03;;;;;;;24.75;4.05;;;8.70;99.90;;;;;;5086340;28;20413;-75
2023/12/10 08:20:29;;;;;;;24.00;4.28;;;8.70;99.90;;;;;;5089963;28;20498;-75
2023/12/10 08:22:54;;;;;;;23.20;4.03;;;8.70;99.90;;;;;;5068795;28;20423;-75
2023/12/10 08:25:20;;;;;;;22.33;3.33;;;8.70;99.90;;;;;;5072172;28;20435;-75
2023/12/10 08:27:46;;;;;;;22.90;4.30;;;8.70;99.90;;;;;;5082161;28;20415;-75
2023/12/10 08:30:12;;;;;;;21.90;3.17;;;8.70;99.90;;;;;;5080334;28;20481;-75
2023/12/10 08:32:38;;;;;;;20.90;3.20;;;8.70;99.90;;;;;;5078233;28;20408;-75
2023/12/10 08:35:04;;;;;;;22.67;3.40;;;8.70;99.90;;;;;;5068738;28;20400;-75
2023/12/10 08:37:29;;;;;;;21.25;3.47;;;8.70;99.90;;;;;;5082283;28;20756;-75
2023/12/10 08:39:55;;;;;;;18.38;2.95;;;8.70;99.90;;;;;;5071272;28;20398;-75
2023/12/10 08:42:21;;;;;;;11.90;2.17;;;8.70;99.90;;;;;;5078361;28;20402;-75
2023/12/10 08:44:47;;;;;;;18.35;2.50;;;8.70;99.90;;;;;;5080289;28;20848;-75
2023/12/10 08:47:12;;;;;;;10.15;1.60;;;8.70;99.90;;;;;;5086429;28;20445;-75
2023/12/10 08:49:38;;;;;;;11.37;1.53;;;8.70;99.90;;;;;;5075919;28;20492;-75
2023/12/10 08:52:04;;;;;;;11.93;1.70;;;8.70;99.90;;;;;;5084933;28;20406;-75
2023/12/10 08:54:30;;;;;;;18.13;2.20;;;8.70;99.90;;;;;;5085392;28;20431;-75
2023/12/10 08:56:56;;;;;;;14.37;2.33;;;8.70;99.90;;;;;;5087842;28;20517;-75
2023/12/10 08:59:21;;;;;;;16.48;2.05;;;8.70;99.90;;;;;;5087852;28;21003;-75
2023/12/10 09:01:47;;;;;;;18.93;2.73;;;8.60;99.90;;;;;;5086728;28;20421;-75
2023/12/10 09:04:13;;;;;;;11.80;1.50;;;8.70;99.90;;;;;;5090058;28;20426;-75
2023/12/10 09:06:38;;;;;;;15.82;2.30;;;8.70;99.90;;;;;;5087460;28;20420;-75
2023/12/10 09:09:04;;;;;;;12.30;1.97;;;8.70;99.90;;;;;;5093158;28;20398;-75
2023/12/10 09:11:30;;;;;;;11.68;1.80;;;8.70;99.90;;;;;;5090572;28;20426;-75
2023/12/10 09:13:56;;;;;;;12.50;2.22;;;8.70;99.90;;;;;;5077385;28;20404;-75
2023/12/10 09:16:22;;;;;;;9.88;1.35;;;8.70;99.90;;;;;;5099212;28;20792;-75
2023/12/10 09:18:48;;;;;;;13.95;1.52;;;8.70;99.90;;;;;;5099613;28;20412;-75
2023/12/10 09:21:14;;;;;;;15.57;2.10;;;8.70;99.90;;;;;;5094535;28;20431;-74
2023/12/10 09:23:41;;;;;;;18.38;2.60;;;8.70;99.90;;;;;;5095647;28;20417;-75
2023/12/10 09:26:06;;;;;;;17.02;2.88;;;8.70;99.90;;;;;;5100356;28;20400;-75
2023/12/10 09:28:32;;;;;;;16.50;2.33;;;8.70;99.90;;;;;;5106976;28;20416;-72
2023/12/10 09:30:57;;;;;;;20.40;2.47;;;8.70;99.90;;;;;;5094628;28;20414;-73
2023/12/10 09:33:23;;;;;;;14.63;2.10;;;8.60;99.90;;;;;;5099306;28;20406;-73
2023/12/10 09:35:48;;;;;;;13.65;1.90;;;8.70;99.90;;;;;;5081921;28;20423;-73
2023/12/10 09:38:14;;;;;;;16.83;2.60;;;8.70;99.90;;;;;;5091315;28;20402;-73
2023/12/10 09:40:40;;;;;;;20.95;2.80;;;8.70;99.90;;;;;;5092836;28;20403;-73
2023/12/10 09:43:06;;;;;;;18.15;2.75;;;8.60;99.90;;;;;;5091260;28;20386;-74
2023/12/10 09:45:32;;;;;;;17.67;2.60;;;8.60;99.90;;;;;;5089883;28;20928;-74
2023/12/10 09:47:59;;;;;;;19.33;2.73;;;8.60;99.90;;;;;;5090454;28;20398;-74
2023/12/10 09:50:25;;;;;;;23.53;3.60;;;8.60;99.90;;;;;;5091666;28;20429;-74
2023/12/10 09:52:51;;;;;;;28.17;3.73;;;8.60;99.90;;;;;;5089213;28;20820;-74
2023/12/10 09:55:17;;;;;;;28.42;4.63;;;8.60;99.90;;;;;;5089182;28;20410;-74
2023/12/10 09:57:42;;;;;;;22.33;3.92;;;8.60;99.90;;;;;;5087515;28;20410;-74
2023/12/10 10:00:09;;;;;;;23.35;3.63;;;8.60;99.90;;;;;;5087342;28;20409;-74
2023/12/10 10:02:36;;;;;;;25.48;3.58;;;8.60;99.90;;;;;;5094168;28;20519;-74
2023/12/10 10:05:03;;;;;;;20.80;3.08;;;8.60;99.90;;;;;;5089984;28;20438;-74
2023/12/10 10:07:29;;;;;;;18.20;2.70;;;8.60;99.90;;;;;;5095026;28;20411;-74
2023/12/10 10:09:55;;;;;;;21.50;3.42;;;8.60;99.90;;;;;;5093229;28;20957;-73
2023/12/10 10:12:21;;;;;;;23.67;3.20;;;8.60;99.90;;;;;;5089534;28;20431;-74
2023/12/10 10:14:59;;;;;;;18.48;2.50;;;8.60;99.90;;;;;;5077832;28;20396;-74
2023/12/10 10:17:29;;;;;;;16.63;2.55;;;8.60;99.90;;;;;;5094129;28;20418;-74
2023/12/10 10:19:55;;;;;;;16.02;2.85;;;8.60;99.90;;;;;;5088782;28;20420;-74
2023/12/10 10:22:23;;;;;;;17.30;2.87;;;8.60;99.90;;;;;;5106823;28;21093;-74
2023/12/10 10:24:50;;;;;;;17.70;3.10;;;8.60;99.90;;;;;;5100949;28;20453;-73
2023/12/10 10:27:17;;;;;;;19.45;2.88;;;8.60;99.90;;;;;;5091506;28;20434;-74
2023/12/10 10:29:43;;;;;;;19.33;3.05;;;8.60;99.90;;;;;;5081292;28;20412;-74
2023/12/10 10:32:15;;;;;;;16.73;2.70;;;8.60;99.90;;;;;;5104622;28;20933;-74
2023/12/10 10:34:47;;;;;;;16.85;2.50;;;8.60;99.90;;;;;;5094978;28;20396;-73
2023/12/10 10:37:17;;;;;;;17.43;2.63;;;8.60;99.90;;;;;;5102873;28;20414;-74
2023/12/10 10:39:44;;;;;;;19.17;2.57;;;8.60;99.90;;;;;;5097429;28;20443;-74
2023/12/10 10:42:10;;;;;;;17.77;2.70;;;8.60;99.90;;;;;;5103927;28;20410;-74
2023/12/10 10:44:37;;;;;;;13.10;2.15;;;8.60;99.90;;;;;;5087641;28;20434;-74
2023/12/10 10:47:05;;;;;;;17.10;2.08;;;8.60;99.90;;;;;;5098706;28;20492;-74
2023/12/10 10:49:33;;;;;;;16.67;2.20;;;8.60;99.90;;;;;;5086074;28;20432;-74
2023/12/10 10:52:02;;;;;;;18.17;2.58;;;8.60;99.90;;;;;;5082105;28;20430;-74
2023/12/10 10:54:28;;;;;;;16.97;2.30;;;8.50;99.90;;;;;;5097145;28;20766;-74
2023/12/10 10:56:54;;;;;;;18.75;2.70;;;8.50;99.90;;;;;;5099854;28;20404;-74
2023/12/10 10:59:33;;;;;;;17.37;2.63;;;8.50;99.90;;;;;;5086013;28;20402;-74
2023/12/10 11:02:01;;;;;;;16.80;3.08;;;8.50;99.90;;;;;;5101835;28;20412;-74
2023/12/10 11:04:39;;;;;;;18.08;2.47;;;8.50;99.90;;;;;;5092562;28;20433;-73
2023/12/10 11:07:06;;;;;;;19.60;3.97;;;8.50;99.90;;;;;;5096995;28;20422;-74
2023/12/10 11:09:32;;;;;;;18.27;2.80;;;8.50;99.90;;;;;;5086572;28;20398;-74
2023/12/10 11:11:58;;;;;;;21.38;3.42;;;8.60;99.90;;;;;;5100467;28;20446;-74
2023/12/10 11:14:24;;;;;;;20.20;3.53;;;8.60;99.90;;;;;;5069109;28;20415;-70
2023/12/10 11:17:03;;;;;;;17.88;3.10;;;8.60;99.90;;;;;;5097267;28;20938;-70
2023/12/10 11:19:31;;;;;;;18.90;3.10;;;8.70;99.90;;;;;;5106622;28;20408;-71
2023/12/10 11:21:56;;;;;;;20.15;3.53;;;8.70;99.90;;;;;;5106692;28;20865;-73
2023/12/10 11:24:23;;;;;;;26.03;4.03;;;8.80;99.90;;;;;;5102558;28;20517;-73
2023/12/10 11:26:49;;;;;;;24.70;4.10;;;8.90;99.90;;;;;;5104653;28;20396;-74
2023/12/10 11:29:14;;;;;;;20.40;3.30;;;9.10;99.90;;;;;;5102030;28;20464;-74
2023/12/10 11:31:43;;;;;;;21.00;3.60;;;9.20;99.90;;;;;;5104467;28;20404;-74
2023/12/10 11:34:08;;;;;;;25.48;4.25;;;9.20;99.90;;;;;;5103327;28;20398;-74
2023/12/10 11:36:34;;;;;;;20.63;3.67;;;9.20;99.90;;;;;;5094675;28;20421;-74
2023/12/10 11:38:59;;;;;;;21.67;3.60;;;9.20;99.90;;;;;;5101113;28;20390;-74
2023/12/10 11:41:25;;;;;;;20.90;3.50;;;9.10;99.90;;;;;;5096426;28;20398;-74
2023/12/10 11:43:51;;;;;;;23.10;3.60;;;9.10;99.90;;;;;;5088345;28;20422;-74
2023/12/10 11:46:21;;;;;;;21.42;3.67;;;9.10;99.90;;;;;;5104170;28;20472;-74
2023/12/10 11:48:47;;;;;;;23.25;4.22;;;9.10;99.90;;;;;;5101896;28;20481;-74
2023/12/10 11:51:13;;;;;;;23.92;3.83;;;9.10;99.90;;;;;;5105344;28;20897;-74
2023/12/10 11:53:39;;;;;;;23.30;4.53;;;9.10;99.90;;;;;;5102431;28;20763;-74
2023/12/10 11:56:08;;;;;;;20.13;3.53;;;9.10;99.90;;;;;;5104066;28;20405;-74
2023/12/10 11:58:33;;;;;;;21.60;3.60;;;9.10;99.90;;;;;;5103820;28;20415;-74
2023/12/10 12:01:00;;;;;;;18.95;3.28;;;9.10;99.90;;;;;;5109213;28;20795;-74
2023/12/10 12:03:26;;;;;;;21.27;4.05;;;9.20;99.90;;;;;;5106477;28;20396;-74
2023/12/10 12:05:55;;;;;;;25.02;4.20;;;9.20;99.90;;;;;;5107772;28;20436;-74
2023/12/10 12:08:26;;;;;;;22.40;4.57;;;9.30;99.90;;;;;;5106090;28;20396;-74
2023/12/10 12:10:52;;;;;;;22.83;4.05;;;9.30;99.90;;;;;;5096545;28;20406;-74
2023/12/10 12:13:17;;;;;;;21.40;3.47;;;9.30;99.90;;;;;;5100226;28;20409;-74
2023/12/10 12:15:47;;;;;;;22.85;3.97;;;9.20;99.90;;;;;;5089551;28;20406;-74
2023/12/10 12:18:13;;;;;;;23.67;3.72;;;9.20;99.90;;;;;;5103805;28;20499;-74
2023/12/10 12:20:39;;;;;;;27.20;4.50;;;9.10;99.90;;;;;;5090370;28;20903;-74
2023/12/10 12:23:05;;;;;;;26.20;4.83;;;9.10;99.90;;;;;;5103425;28;20413;-74
2023/12/10 12:25:38;;;;;;;28.52;3.95;;;9.10;99.90;;;;;;5101698;28;20547;-74
2023/12/10 12:28:09;;;;;;;23.10;3.80;;;9.00;99.90;;;;;;5107301;28;20404;-74
2023/12/10 12:30:36;;;;;;;23.05;4.78;;;9.00;99.90;;;;;;5107263;28;20774;-74
2023/12/10 12:33:02;;;;;;;26.33;4.50;;;9.00;99.90;;;;;;5097360;28;20487;-74
2023/12/10 12:35:29;;;;;;;24.30;4.60;;;9.10;99.90;;;;;;5107047;28;21030;-74
2023/12/10 12:37:55;;;;;;;23.47;3.77;;;9.10;99.90;;;;;;5095458;28;20407;-74
2023/12/10 12:40:21;;;;;;;25.27;4.57;;;9.10;99.90;;;;;;5105162;28;20912;-74
2023/12/10 12:42:50;;;;;;;23.37;3.93;;;9.10;99.90;;;;;;5101560;28;20405;-74